sensor_id;sensor_type;location;lat;lon;timestamp;P1;durP1;ratioP1;P2;durP2;ratioP2
32613;SDS011;19031;51.400;6.770;2023-04-06T00:01:33;8.45;;;3.63;;
32613;SDS011;19031;51.400;6.770;2023-04-06T00:03:59;3.90;;;1.95;;
32613;SDS011;19031;51.400;6.770;2023-04-06T00:06:25;5.30;;;2.92;;
32613;SDS011;19031;51.400;6.770;2023-04-06T00:08:51;6.47;;;3.17;;
32613;SDS011;19031;51.400;6.770;2023-04-06T00:11:17;11.05;;;3.30;;
32613;SDS011;19031;51.400;6.770;2023-04-06T00:13:43;6.50;;;2.55;;
32613;SDS011;19031;51.400;6.770;2023-04-06T00:16:08;8.00;;;3.35;;
32613;SDS011;19031;51.400;6.770;2023-04-06T00:18:34;7.00;;;3.42;;
32613;SDS011;19031;51.400;6.770;2023-04-06T00:21:00;12.77;;;4.60;;
32613;SDS011;19031;51.400;6.770;2023-04-06T00:23:25;8.43;;;3.95;;
32613;SDS011;19031;51.400;6.770;2023-04-06T00:25:51;15.45;;;4.50;;
32613;SDS011;19031;51.400;6.770;2023-04-06T00:28:17;11.48;;;3.70;;
32613;SDS011;19031;51.400;6.770;2023-04-06T00:30:42;6.07;;;2.92;;
32613;SDS011;19031;51.400;6.770;2023-04-06T00:33:08;10.23;;;3.30;;
32613;SDS011;19031;51.400;6.770;2023-04-06T00:35:34;10.75;;;2.97;;
32613;SDS011;19031;51.400;6.770;2023-04-06T00:38:00;7.70;;;2.75;;
32613;SDS011;19031;51.400;6.770;2023-04-06T00:40:25;5.32;;;3.28;;
32613;SDS011;19031;51.400;6.770;2023-04-06T00:42:53;4.50;;;2.35;;
32613;SDS011;19031;51.400;6.770;2023-04-06T00:45:19;10.85;;;5.45;;
32613;SDS011;19031;51.400;6.770;2023-04-06T00:47:45;15.20;;;5.22;;
32613;SDS011;19031;51.400;6.770;2023-04-06T00:50:11;11.88;;;4.70;;
32613;SDS011;19031;51.400;6.770;2023-04-06T00:52:36;7.90;;;3.20;;
32613;SDS011;19031;51.400;6.770;2023-04-06T00:55:03;6.28;;;2.95;;
32613;SDS011;19031;51.400;6.770;2023-04-06T00:57:29;5.15;;;3.20;;
32613;SDS011;19031;51.400;6.770;2023-04-06T00:59:54;9.05;;;3.17;;
32613;SDS011;19031;51.400;6.770;2023-04-06T01:02:21;9.05;;;3.55;;
32613;SDS011;19031;51.400;6.770;2023-04-06T01:04:46;8.30;;;3.40;;
32613;SDS011;19031;51.400;6.770;2023-04-06T01:07:12;5.90;;;2.30;;
32613;SDS011;19031;51.400;6.770;2023-04-06T01:09:37;9.02;;;2.75;;
32613;SDS011;19031;51.400;6.770;2023-04-06T01:12:06;5.95;;;3.08;;
32613;SDS011;19031;51.400;6.770;2023-04-06T01:14:31;7.82;;;3.05;;
32613;SDS011;19031;51.400;6.770;2023-04-06T01:16:57;8.50;;;3.28;;
32613;SDS011;19031;51.400;6.770;2023-04-06T01:19:25;6.60;;;3.42;;
32613;SDS011;19031;51.400;6.770;2023-04-06T01:21:51;9.30;;;3.35;;
32613;SDS011;19031;51.400;6.770;2023-04-06T01:24:18;7.65;;;2.08;;
32613;SDS011;19031;51.400;6.770;2023-04-06T01:26:44;7.68;;;3.25;;
32613;SDS011;19031;51.400;6.770;2023-04-06T01:29:10;4.85;;;2.95;;
32613;SDS011;19031;51.400;6.770;2023-04-06T01:31:36;4.32;;;2.92;;
32613;SDS011;19031;51.400;6.770;2023-04-06T01:34:02;4.90;;;3.28;;
32613;SDS011;19031;51.400;6.770;2023-04-06T01:36:27;6.25;;;3.00;;
32613;SDS011;19031;51.400;6.770;2023-04-06T01:38:53;6.65;;;3.45;;
32613;SDS011;19031;51.400;6.770;2023-04-06T01:41:18;9.27;;;3.80;;
32613;SDS011;19031;51.400;6.770;2023-04-06T01:43:45;6.05;;;2.80;;
32613;SDS011;19031;51.400;6.770;2023-04-06T01:46:12;4.90;;;2.67;;
32613;SDS011;19031;51.400;6.770;2023-04-06T01:48:37;5.78;;;2.63;;
32613;SDS011;19031;51.400;6.770;2023-04-06T01:51:03;5.57;;;3.13;;
32613;SDS011;19031;51.400;6.770;2023-04-06T01:53:29;10.63;;;3.28;;
32613;SDS011;19031;51.400;6.770;2023-04-06T01:55:54;7.30;;;3.08;;
32613;SDS011;19031;51.400;6.770;2023-04-06T01:58:20;6.22;;;3.40;;
32613;SDS011;19031;51.400;6.770;2023-04-06T02:00:46;4.55;;;2.40;;
32613;SDS011;19031;51.400;6.770;2023-04-06T02:03:11;7.72;;;3.50;;
32613;SDS011;19031;51.400;6.770;2023-04-06T02:05:37;7.00;;;3.55;;
32613;SDS011;19031;51.400;6.770;2023-04-06T02:08:05;4.68;;;2.97;;
32613;SDS011;19031;51.400;6.770;2023-04-06T02:10:32;9.10;;;3.75;;
32613;SDS011;19031;51.400;6.770;2023-04-06T02:12:58;6.43;;;3.17;;
32613;SDS011;19031;51.400;6.770;2023-04-06T02:15:24;9.68;;;4.20;;
32613;SDS011;19031;51.400;6.770;2023-04-06T02:17:50;11.13;;;3.42;;
32613;SDS011;19031;51.400;6.770;2023-04-06T02:20:16;11.98;;;3.03;;
32613;SDS011;19031;51.400;6.770;2023-04-06T02:22:42;7.03;;;3.05;;
32613;SDS011;19031;51.400;6.770;2023-04-06T02:25:08;6.50;;;3.67;;
32613;SDS011;19031;51.400;6.770;2023-04-06T02:27:34;8.73;;;4.25;;
32613;SDS011;19031;51.400;6.770;2023-04-06T02:30:01;13.85;;;3.47;;
32613;SDS011;19031;51.400;6.770;2023-04-06T02:32:27;7.03;;;3.92;;
32613;SDS011;19031;51.400;6.770;2023-04-06T02:34:52;5.00;;;2.88;;
32613;SDS011;19031;51.400;6.770;2023-04-06T02:37:18;6.40;;;3.53;;
32613;SDS011;19031;51.400;6.770;2023-04-06T02:39:44;7.60;;;3.55;;
32613;SDS011;19031;51.400;6.770;2023-04-06T02:42:10;5.97;;;3.40;;
32613;SDS011;19031;51.400;6.770;2023-04-06T02:44:36;5.22;;;3.60;;
32613;SDS011;19031;51.400;6.770;2023-04-06T02:47:01;6.97;;;4.32;;
32613;SDS011;19031;51.400;6.770;2023-04-06T02:49:27;8.40;;;3.72;;
32613;SDS011;19031;51.400;6.770;2023-04-06T02:51:53;7.38;;;3.72;;
32613;SDS011;19031;51.400;6.770;2023-04-06T02:54:18;6.90;;;3.58;;
32613;SDS011;19031;51.400;6.770;2023-04-06T02:56:44;8.85;;;3.80;;
32613;SDS011;19031;51.400;6.770;2023-04-06T02:59:10;7.07;;;3.95;;
32613;SDS011;19031;51.400;6.770;2023-04-06T03:01:35;6.45;;;3.63;;
32613;SDS011;19031;51.400;6.770;2023-04-06T03:04:01;7.85;;;3.42;;
32613;SDS011;19031;51.400;6.770;2023-04-06T03:06:27;7.78;;;4.07;;
32613;SDS011;19031;51.400;6.770;2023-04-06T03:08:53;7.93;;;4.22;;
32613;SDS011;19031;51.400;6.770;2023-04-06T03:11:18;9.30;;;4.35;;
32613;SDS011;19031;51.400;6.770;2023-04-06T03:13:44;7.47;;;4.13;;
32613;SDS011;19031;51.400;6.770;2023-04-06T03:16:10;7.88;;;3.67;;
32613;SDS011;19031;51.400;6.770;2023-04-06T03:18:35;12.35;;;4.15;;
32613;SDS011;19031;51.400;6.770;2023-04-06T03:21:01;8.10;;;4.05;;
32613;SDS011;19031;51.400;6.770;2023-04-06T03:23:26;10.38;;;4.38;;
32613;SDS011;19031;51.400;6.770;2023-04-06T03:25:52;7.50;;;3.33;;
32613;SDS011;19031;51.400;6.770;2023-04-06T03:28:18;8.10;;;3.67;;
32613;SDS011;19031;51.400;6.770;2023-04-06T03:30:44;8.20;;;3.42;;
32613;SDS011;19031;51.400;6.770;2023-04-06T03:33:10;7.28;;;4.40;;
32613;SDS011;19031;51.400;6.770;2023-04-06T03:35:36;8.55;;;4.60;;
32613;SDS011;19031;51.400;6.770;2023-04-06T03:38:02;11.77;;;4.97;;
32613;SDS011;19031;51.400;6.770;2023-04-06T03:40:28;6.43;;;4.22;;
32613;SDS011;19031;51.400;6.770;2023-04-06T03:42:54;8.48;;;4.50;;
32613;SDS011;19031;51.400;6.770;2023-04-06T03:45:20;8.98;;;4.80;;
32613;SDS011;19031;51.400;6.770;2023-04-06T03:47:45;10.40;;;4.95;;
32613;SDS011;19031;51.400;6.770;2023-04-06T03:50:11;11.20;;;4.10;;
32613;SDS011;19031;51.400;6.770;2023-04-06T03:52:36;10.50;;;4.88;;
32613;SDS011;19031;51.400;6.770;2023-04-06T03:55:02;5.13;;;3.78;;
32613;SDS011;19031;51.400;6.770;2023-04-06T03:57:28;8.40;;;3.45;;
32613;SDS011;19031;51.400;6.770;2023-04-06T03:59:54;14.27;;;3.97;;
32613;SDS011;19031;51.400;6.770;2023-04-06T04:02:19;8.65;;;4.30;;
32613;SDS011;19031;51.400;6.770;2023-04-06T04:04:45;7.38;;;4.22;;
32613;SDS011;19031;51.400;6.770;2023-04-06T04:07:10;6.32;;;3.92;;
32613;SDS011;19031;51.400;6.770;2023-04-06T04:09:36;10.30;;;5.20;;
32613;SDS011;19031;51.400;6.770;2023-04-06T04:12:02;6.57;;;3.45;;
32613;SDS011;19031;51.400;6.770;2023-04-06T04:14:28;7.10;;;3.30;;
32613;SDS011;19031;51.400;6.770;2023-04-06T04:16:53;9.30;;;4.82;;
32613;SDS011;19031;51.400;6.770;2023-04-06T04:19:19;8.55;;;4.32;;
32613;SDS011;19031;51.400;6.770;2023-04-06T04:21:45;9.52;;;4.07;;
32613;SDS011;19031;51.400;6.770;2023-04-06T04:24:12;6.55;;;3.53;;
32613;SDS011;19031;51.400;6.770;2023-04-06T04:26:38;7.28;;;4.53;;
32613;SDS011;19031;51.400;6.770;2023-04-06T04:29:04;6.60;;;3.95;;
32613;SDS011;19031;51.400;6.770;2023-04-06T04:31:30;9.00;;;6.22;;
32613;SDS011;19031;51.400;6.770;2023-04-06T04:33:56;5.78;;;3.17;;
32613;SDS011;19031;51.400;6.770;2023-04-06T04:36:23;7.78;;;4.25;;
32613;SDS011;19031;51.400;6.770;2023-04-06T04:38:50;7.93;;;4.55;;
32613;SDS011;19031;51.400;6.770;2023-04-06T04:41:16;6.55;;;3.17;;
32613;SDS011;19031;51.400;6.770;2023-04-06T04:43:42;9.55;;;4.15;;
32613;SDS011;19031;51.400;6.770;2023-04-06T04:46:08;9.00;;;4.05;;
32613;SDS011;19031;51.400;6.770;2023-04-06T04:48:34;14.35;;;4.22;;
32613;SDS011;19031;51.400;6.770;2023-04-06T04:51:00;8.82;;;4.70;;
32613;SDS011;19031;51.400;6.770;2023-04-06T04:53:26;6.55;;;3.78;;
32613;SDS011;19031;51.400;6.770;2023-04-06T04:55:51;10.73;;;3.90;;
32613;SDS011;19031;51.400;6.770;2023-04-06T04:58:17;7.47;;;4.22;;
32613;SDS011;19031;51.400;6.770;2023-04-06T05:00:45;7.63;;;4.18;;
32613;SDS011;19031;51.400;6.770;2023-04-06T05:03:17;12.35;;;5.03;;
32613;SDS011;19031;51.400;6.770;2023-04-06T05:05:46;5.43;;;3.95;;
32613;SDS011;19031;51.400;6.770;2023-04-06T05:08:12;9.30;;;4.78;;
32613;SDS011;19031;51.400;6.770;2023-04-06T05:10:37;12.65;;;4.95;;
32613;SDS011;19031;51.400;6.770;2023-04-06T05:13:03;10.95;;;3.83;;
32613;SDS011;19031;51.400;6.770;2023-04-06T05:15:29;10.18;;;4.03;;
32613;SDS011;19031;51.400;6.770;2023-04-06T05:17:55;9.32;;;4.00;;
32613;SDS011;19031;51.400;6.770;2023-04-06T05:20:20;9.55;;;4.40;;
32613;SDS011;19031;51.400;6.770;2023-04-06T05:22:46;7.85;;;3.63;;
32613;SDS011;19031;51.400;6.770;2023-04-06T05:25:12;8.00;;;4.22;;
32613;SDS011;19031;51.400;6.770;2023-04-06T05:27:38;7.28;;;4.47;;
32613;SDS011;19031;51.400;6.770;2023-04-06T05:30:05;10.52;;;5.03;;
32613;SDS011;19031;51.400;6.770;2023-04-06T05:32:32;12.27;;;5.05;;
32613;SDS011;19031;51.400;6.770;2023-04-06T05:34:58;8.18;;;4.63;;
32613;SDS011;19031;51.400;6.770;2023-04-06T05:37:23;7.10;;;4.22;;
32613;SDS011;19031;51.400;6.770;2023-04-06T05:39:49;6.05;;;3.65;;
32613;SDS011;19031;51.400;6.770;2023-04-06T05:42:15;7.18;;;3.67;;
32613;SDS011;19031;51.400;6.770;2023-04-06T05:44:41;6.50;;;3.50;;
32613;SDS011;19031;51.400;6.770;2023-04-06T05:47:07;10.63;;;4.32;;
32613;SDS011;19031;51.400;6.770;2023-04-06T05:49:33;6.75;;;3.78;;
32613;SDS011;19031;51.400;6.770;2023-04-06T05:51:59;7.80;;;3.83;;
32613;SDS011;19031;51.400;6.770;2023-04-06T05:54:25;5.75;;;3.50;;
32613;SDS011;19031;51.400;6.770;2023-04-06T05:56:51;6.25;;;3.63;;
32613;SDS011;19031;51.400;6.770;2023-04-06T05:59:16;6.70;;;3.40;;
32613;SDS011;19031;51.400;6.770;2023-04-06T06:01:42;5.68;;;3.65;;
32613;SDS011;19031;51.400;6.770;2023-04-06T06:04:08;8.52;;;3.53;;
32613;SDS011;19031;51.400;6.770;2023-04-06T06:06:33;6.72;;;3.72;;
32613;SDS011;19031;51.400;6.770;2023-04-06T06:08:59;5.00;;;2.80;;
32613;SDS011;19031;51.400;6.770;2023-04-06T06:11:25;6.72;;;2.90;;
32613;SDS011;19031;51.400;6.770;2023-04-06T06:13:51;7.32;;;3.60;;
32613;SDS011;19031;51.400;6.770;2023-04-06T06:16:18;6.20;;;3.05;;
32613;SDS011;19031;51.400;6.770;2023-04-06T06:18:44;6.15;;;2.85;;
32613;SDS011;19031;51.400;6.770;2023-04-06T06:21:10;5.60;;;2.85;;
32613;SDS011;19031;51.400;6.770;2023-04-06T06:23:38;9.13;;;3.67;;
32613;SDS011;19031;51.400;6.770;2023-04-06T06:26:04;7.28;;;3.50;;
32613;SDS011;19031;51.400;6.770;2023-04-06T06:28:30;4.82;;;2.50;;
32613;SDS011;19031;51.400;6.770;2023-04-06T06:30:56;6.35;;;3.08;;
32613;SDS011;19031;51.400;6.770;2023-04-06T06:33:23;7.07;;;2.35;;
32613;SDS011;19031;51.400;6.770;2023-04-06T06:35:49;6.20;;;2.92;;
32613;SDS011;19031;51.400;6.770;2023-04-06T06:38:15;7.85;;;4.13;;
32613;SDS011;19031;51.400;6.770;2023-04-06T06:40:40;5.32;;;2.50;;
32613;SDS011;19031;51.400;6.770;2023-04-06T06:43:06;5.18;;;2.88;;
32613;SDS011;19031;51.400;6.770;2023-04-06T06:45:32;7.90;;;3.20;;
32613;SDS011;19031;51.400;6.770;2023-04-06T06:47:57;9.35;;;3.83;;
32613;SDS011;19031;51.400;6.770;2023-04-06T06:50:23;5.10;;;3.10;;
32613;SDS011;19031;51.400;6.770;2023-04-06T06:52:49;7.93;;;3.75;;
32613;SDS011;19031;51.400;6.770;2023-04-06T06:55:15;10.55;;;3.85;;
32613;SDS011;19031;51.400;6.770;2023-04-06T06:57:41;6.97;;;3.05;;
32613;SDS011;19031;51.400;6.770;2023-04-06T07:00:09;10.95;;;3.58;;
32613;SDS011;19031;51.400;6.770;2023-04-06T07:02:36;6.45;;;2.88;;
32613;SDS011;19031;51.400;6.770;2023-04-06T07:05:02;6.72;;;2.63;;
32613;SDS011;19031;51.400;6.770;2023-04-06T07:07:28;6.72;;;3.28;;
32613;SDS011;19031;51.400;6.770;2023-04-06T07:09:54;5.07;;;2.83;;
32613;SDS011;19031;51.400;6.770;2023-04-06T07:12:19;5.22;;;2.88;;
32613;SDS011;19031;51.400;6.770;2023-04-06T07:14:45;9.63;;;3.58;;
32613;SDS011;19031;51.400;6.770;2023-04-06T07:17:11;3.88;;;2.50;;
32613;SDS011;19031;51.400;6.770;2023-04-06T07:19:36;6.95;;;3.63;;
32613;SDS011;19031;51.400;6.770;2023-04-06T07:22:02;5.90;;;3.65;;
32613;SDS011;19031;51.400;6.770;2023-04-06T07:24:28;6.75;;;3.40;;
32613;SDS011;19031;51.400;6.770;2023-04-06T07:26:54;11.57;;;3.20;;
32613;SDS011;19031;51.400;6.770;2023-04-06T07:29:21;8.25;;;3.25;;
32613;SDS011;19031;51.400;6.770;2023-04-06T07:31:48;6.68;;;3.97;;
32613;SDS011;19031;51.400;6.770;2023-04-06T07:34:14;5.50;;;3.40;;
32613;SDS011;19031;51.400;6.770;2023-04-06T07:36:40;4.78;;;2.90;;
32613;SDS011;19031;51.400;6.770;2023-04-06T07:39:06;15.30;;;4.40;;
32613;SDS011;19031;51.400;6.770;2023-04-06T07:41:32;7.88;;;3.92;;
32613;SDS011;19031;51.400;6.770;2023-04-06T07:43:57;9.05;;;4.07;;
32613;SDS011;19031;51.400;6.770;2023-04-06T07:46:23;9.73;;;4.00;;
32613;SDS011;19031;51.400;6.770;2023-04-06T07:48:49;13.68;;;3.55;;
32613;SDS011;19031;51.400;6.770;2023-04-06T07:51:15;8.00;;;3.75;;
32613;SDS011;19031;51.400;6.770;2023-04-06T07:53:43;6.53;;;3.90;;
32613;SDS011;19031;51.400;6.770;2023-04-06T07:56:09;9.07;;;4.35;;
32613;SDS011;19031;51.400;6.770;2023-04-06T07:58:35;8.85;;;3.90;;
32613;SDS011;19031;51.400;6.770;2023-04-06T08:01:01;8.30;;;4.25;;
32613;SDS011;19031;51.400;6.770;2023-04-06T08:03:27;13.27;;;4.45;;
32613;SDS011;19031;51.400;6.770;2023-04-06T08:05:52;7.03;;;3.78;;
32613;SDS011;19031;51.400;6.770;2023-04-06T08:08:21;9.30;;;4.15;;
32613;SDS011;19031;51.400;6.770;2023-04-06T08:10:48;6.95;;;3.97;;
32613;SDS011;19031;51.400;6.770;2023-04-06T08:13:14;11.45;;;4.40;;
32613;SDS011;19031;51.400;6.770;2023-04-06T08:15:40;6.85;;;3.95;;
32613;SDS011;19031;51.400;6.770;2023-04-06T08:18:06;6.65;;;3.33;;
32613;SDS011;19031;51.400;6.770;2023-04-06T08:20:33;10.80;;;4.57;;
32613;SDS011;19031;51.400;6.770;2023-04-06T08:22:59;8.20;;;4.03;;
32613;SDS011;19031;51.400;6.770;2023-04-06T08:25:25;14.40;;;4.38;;
32613;SDS011;19031;51.400;6.770;2023-04-06T08:27:51;6.53;;;4.25;;
32613;SDS011;19031;51.400;6.770;2023-04-06T08:30:16;6.97;;;3.95;;
32613;SDS011;19031;51.400;6.770;2023-04-06T08:32:43;11.30;;;4.30;;
32613;SDS011;19031;51.400;6.770;2023-04-06T08:35:12;10.43;;;4.13;;
32613;SDS011;19031;51.400;6.770;2023-04-06T08:37:37;10.00;;;4.60;;
32613;SDS011;19031;51.400;6.770;2023-04-06T08:40:04;8.77;;;4.28;;
32613;SDS011;19031;51.400;6.770;2023-04-06T08:42:31;10.13;;;4.60;;
32613;SDS011;19031;51.400;6.770;2023-04-06T08:44:58;10.35;;;4.68;;
32613;SDS011;19031;51.400;6.770;2023-04-06T08:47:25;8.13;;;4.60;;
32613;SDS011;19031;51.400;6.770;2023-04-06T08:49:52;6.75;;;3.92;;
32613;SDS011;19031;51.400;6.770;2023-04-06T08:52:19;9.95;;;5.00;;
32613;SDS011;19031;51.400;6.770;2023-04-06T08:54:45;9.45;;;4.93;;
32613;SDS011;19031;51.400;6.770;2023-04-06T08:57:10;6.75;;;4.25;;
32613;SDS011;19031;51.400;6.770;2023-04-06T08:59:40;9.95;;;4.60;;
32613;SDS011;19031;51.400;6.770;2023-04-06T09:02:06;8.07;;;4.10;;
32613;SDS011;19031;51.400;6.770;2023-04-06T09:04:40;9.13;;;4.50;;
32613;SDS011;19031;51.400;6.770;2023-04-06T09:07:06;9.90;;;4.05;;
32613;SDS011;19031;51.400;6.770;2023-04-06T09:09:32;8.50;;;4.68;;
32613;SDS011;19031;51.400;6.770;2023-04-06T09:11:57;12.48;;;4.75;;
32613;SDS011;19031;51.400;6.770;2023-04-06T09:14:34;10.02;;;4.70;;
32613;SDS011;19031;51.400;6.770;2023-04-06T09:17:01;11.98;;;4.93;;
32613;SDS011;19031;51.400;6.770;2023-04-06T09:19:27;10.05;;;4.93;;
32613;SDS011;19031;51.400;6.770;2023-04-06T09:22:05;12.60;;;5.18;;
32613;SDS011;19031;51.400;6.770;2023-04-06T09:24:47;9.88;;;5.05;;
32613;SDS011;19031;51.400;6.770;2023-04-06T09:27:13;10.15;;;4.45;;
32613;SDS011;19031;51.400;6.770;2023-04-06T09:29:40;12.25;;;5.13;;
32613;SDS011;19031;51.400;6.770;2023-04-06T09:32:07;11.23;;;5.13;;
32613;SDS011;19031;51.400;6.770;2023-04-06T09:34:39;9.90;;;5.03;;
32613;SDS011;19031;51.400;6.770;2023-04-06T09:39:41;11.65;;;4.82;;
32613;SDS011;19031;51.400;6.770;2023-04-06T09:42:06;14.32;;;5.35;;
32613;SDS011;19031;51.400;6.770;2023-04-06T09:44:32;8.68;;;4.93;;
32613;SDS011;19031;51.400;6.770;2023-04-06T09:46:58;15.65;;;5.88;;
32613;SDS011;19031;51.400;6.770;2023-04-06T09:49:24;11.20;;;4.85;;
32613;SDS011;19031;51.400;6.770;2023-04-06T09:51:54;10.65;;;5.85;;
32613;SDS011;19031;51.400;6.770;2023-04-06T09:54:28;10.35;;;5.63;;
32613;SDS011;19031;51.400;6.770;2023-04-06T09:57:11;14.43;;;6.13;;
32613;SDS011;19031;51.400;6.770;2023-04-06T09:59:53;13.50;;;6.07;;
32613;SDS011;19031;51.400;6.770;2023-04-06T10:05:46;12.10;;;5.60;;
32613;SDS011;19031;51.400;6.770;2023-04-06T10:08:16;11.40;;;5.70;;
32613;SDS011;19031;51.400;6.770;2023-04-06T10:10:44;11.82;;;4.80;;
32613;SDS011;19031;51.400;6.770;2023-04-06T10:13:11;12.98;;;5.55;;
32613;SDS011;19031;51.400;6.770;2023-04-06T10:15:37;9.50;;;4.78;;
32613;SDS011;19031;51.400;6.770;2023-04-06T10:18:05;12.27;;;6.90;;
32613;SDS011;19031;51.400;6.770;2023-04-06T10:23:12;13.98;;;5.68;;
32613;SDS011;19031;51.400;6.770;2023-04-06T10:25:51;11.43;;;5.38;;
32613;SDS011;19031;51.400;6.770;2023-04-06T10:28:18;14.43;;;7.00;;
32613;SDS011;19031;51.400;6.770;2023-04-06T10:30:44;15.10;;;5.63;;
32613;SDS011;19031;51.400;6.770;2023-04-06T10:33:14;11.32;;;5.75;;
32613;SDS011;19031;51.400;6.770;2023-04-06T10:35:44;12.15;;;5.80;;
32613;SDS011;19031;51.400;6.770;2023-04-06T10:38:10;13.05;;;5.57;;
32613;SDS011;19031;51.400;6.770;2023-04-06T10:40:40;13.27;;;6.03;;
32613;SDS011;19031;51.400;6.770;2023-04-06T10:45:37;12.57;;;6.47;;
32613;SDS011;19031;51.400;6.770;2023-04-06T10:48:16;12.65;;;5.57;;
32613;SDS011;19031;51.400;6.770;2023-04-06T10:50:47;14.70;;;6.72;;
32613;SDS011;19031;51.400;6.770;2023-04-06T10:53:24;15.82;;;6.45;;
32613;SDS011;19031;51.400;6.770;2023-04-06T10:55:51;14.27;;;6.15;;
32613;SDS011;19031;51.400;6.770;2023-04-06T10:58:24;16.38;;;8.00;;
32613;SDS011;19031;51.400;6.770;2023-04-06T11:00:50;16.35;;;6.78;;
32613;SDS011;19031;51.400;6.770;2023-04-06T11:03:16;16.27;;;6.68;;
32613;SDS011;19031;51.400;6.770;2023-04-06T11:05:46;10.80;;;6.07;;
32613;SDS011;19031;51.400;6.770;2023-04-06T11:08:25;14.02;;;5.93;;
32613;SDS011;19031;51.400;6.770;2023-04-06T11:14:15;12.85;;;6.15;;
32613;SDS011;19031;51.400;6.770;2023-04-06T11:16:24;13.65;;;6.80;;
32613;SDS011;19031;51.400;6.770;2023-04-06T11:18:58;13.40;;;6.72;;
32613;SDS011;19031;51.400;6.770;2023-04-06T11:21:37;14.57;;;6.90;;
32613;SDS011;19031;51.400;6.770;2023-04-06T11:24:09;13.48;;;6.63;;
32613;SDS011;19031;51.400;6.770;2023-04-06T11:26:43;16.67;;;7.97;;
32613;SDS011;19031;51.400;6.770;2023-04-06T11:29:15;13.27;;;6.78;;
32613;SDS011;19031;51.400;6.770;2023-04-06T11:31:45;12.43;;;6.07;;
32613;SDS011;19031;51.400;6.770;2023-04-06T11:34:12;16.60;;;6.65;;
32613;SDS011;19031;51.400;6.770;2023-04-06T11:36:41;14.82;;;7.05;;
32613;SDS011;19031;51.400;6.770;2023-04-06T11:39:08;15.25;;;6.18;;
32613;SDS011;19031;51.400;6.770;2023-04-06T11:41:34;15.07;;;7.75;;
32613;SDS011;19031;51.400;6.770;2023-04-06T11:44:01;15.48;;;7.00;;
32613;SDS011;19031;51.400;6.770;2023-04-06T11:46:30;13.27;;;5.63;;
32613;SDS011;19031;51.400;6.770;2023-04-06T11:48:59;16.02;;;6.55;;
32613;SDS011;19031;51.400;6.770;2023-04-06T11:51:25;13.80;;;6.60;;
32613;SDS011;19031;51.400;6.770;2023-04-06T11:53:51;12.55;;;6.43;;
32613;SDS011;19031;51.400;6.770;2023-04-06T11:56:50;15.50;;;6.35;;
32613;SDS011;19031;51.400;6.770;2023-04-06T11:59:11;16.85;;;5.85;;
32613;SDS011;19031;51.400;6.770;2023-04-06T12:01:44;12.18;;;6.03;;
32613;SDS011;19031;51.400;6.770;2023-04-06T12:04:10;15.30;;;6.27;;
32613;SDS011;19031;51.400;6.770;2023-04-06T12:06:35;15.77;;;7.43;;
32613;SDS011;19031;51.400;6.770;2023-04-06T12:09:01;15.73;;;6.28;;
32613;SDS011;19031;51.400;6.770;2023-04-06T12:11:27;10.45;;;5.05;;
32613;SDS011;19031;51.400;6.770;2023-04-06T12:13:53;12.95;;;5.88;;
32613;SDS011;19031;51.400;6.770;2023-04-06T12:16:18;13.70;;;6.00;;
32613;SDS011;19031;51.400;6.770;2023-04-06T12:18:44;12.70;;;6.50;;
32613;SDS011;19031;51.400;6.770;2023-04-06T12:21:11;17.35;;;7.05;;
32613;SDS011;19031;51.400;6.770;2023-04-06T12:23:37;12.10;;;5.65;;
32613;SDS011;19031;51.400;6.770;2023-04-06T12:26:02;11.70;;;5.35;;
32613;SDS011;19031;51.400;6.770;2023-04-06T12:28:28;13.82;;;6.43;;
32613;SDS011;19031;51.400;6.770;2023-04-06T12:30:54;12.27;;;5.78;;
32613;SDS011;19031;51.400;6.770;2023-04-06T12:33:20;22.20;;;7.03;;
32613;SDS011;19031;51.400;6.770;2023-04-06T12:35:46;14.90;;;6.63;;
32613;SDS011;19031;51.400;6.770;2023-04-06T12:38:11;16.98;;;6.55;;
32613;SDS011;19031;51.400;6.770;2023-04-06T12:40:37;16.20;;;6.78;;
32613;SDS011;19031;51.400;6.770;2023-04-06T12:43:04;13.05;;;6.05;;
32613;SDS011;19031;51.400;6.770;2023-04-06T12:45:31;12.00;;;5.80;;
32613;SDS011;19031;51.400;6.770;2023-04-06T12:47:56;14.05;;;6.97;;
32613;SDS011;19031;51.400;6.770;2023-04-06T12:50:22;11.02;;;6.22;;
32613;SDS011;19031;51.400;6.770;2023-04-06T12:52:48;13.50;;;6.07;;
32613;SDS011;19031;51.400;6.770;2023-04-06T12:55:14;11.80;;;5.95;;
32613;SDS011;19031;51.400;6.770;2023-04-06T12:57:40;15.45;;;5.63;;
32613;SDS011;19031;51.400;6.770;2023-04-06T13:00:06;9.63;;;4.78;;
32613;SDS011;19031;51.400;6.770;2023-04-06T13:02:33;9.45;;;4.85;;
32613;SDS011;19031;51.400;6.770;2023-04-06T13:04:59;13.80;;;4.93;;
32613;SDS011;19031;51.400;6.770;2023-04-06T13:07:25;7.97;;;4.32;;
32613;SDS011;19031;51.400;6.770;2023-04-06T13:09:51;5.53;;;3.47;;
32613;SDS011;19031;51.400;6.770;2023-04-06T13:12:16;7.78;;;3.78;;
32613;SDS011;19031;51.400;6.770;2023-04-06T13:14:43;6.78;;;3.63;;
32613;SDS011;19031;51.400;6.770;2023-04-06T13:17:08;6.93;;;4.07;;
32613;SDS011;19031;51.400;6.770;2023-04-06T13:19:34;5.03;;;2.88;;
32613;SDS011;19031;51.400;6.770;2023-04-06T13:22:00;7.72;;;3.83;;
32613;SDS011;19031;51.400;6.770;2023-04-06T13:24:25;8.25;;;3.40;;
32613;SDS011;19031;51.400;6.770;2023-04-06T13:26:51;5.43;;;3.13;;
32613;SDS011;19031;51.400;6.770;2023-04-06T13:29:17;7.60;;;3.75;;
32613;SDS011;19031;51.400;6.770;2023-04-06T13:31:42;9.90;;;3.53;;
32613;SDS011;19031;51.400;6.770;2023-04-06T13:34:08;5.72;;;3.63;;
32613;SDS011;19031;51.400;6.770;2023-04-06T13:36:34;6.80;;;3.53;;
32613;SDS011;19031;51.400;6.770;2023-04-06T13:38:59;9.80;;;4.05;;
32613;SDS011;19031;51.400;6.770;2023-04-06T13:41:25;7.05;;;3.67;;
32613;SDS011;19031;51.400;6.770;2023-04-06T13:43:51;7.07;;;3.88;;
32613;SDS011;19031;51.400;6.770;2023-04-06T13:46:17;6.80;;;3.85;;
32613;SDS011;19031;51.400;6.770;2023-04-06T13:48:43;7.20;;;3.38;;
32613;SDS011;19031;51.400;6.770;2023-04-06T13:51:13;6.47;;;3.65;;
32613;SDS011;19031;51.400;6.770;2023-04-06T13:53:39;8.10;;;4.50;;
32613;SDS011;19031;51.400;6.770;2023-04-06T13:56:05;7.32;;;4.20;;
32613;SDS011;19031;51.400;6.770;2023-04-06T13:58:32;8.68;;;4.82;;
32613;SDS011;19031;51.400;6.770;2023-04-06T14:01:05;9.15;;;4.85;;
32613;SDS011;19031;51.400;6.770;2023-04-06T14:03:32;6.47;;;3.83;;
32613;SDS011;19031;51.400;6.770;2023-04-06T14:05:58;7.78;;;3.60;;
32613;SDS011;19031;51.400;6.770;2023-04-06T14:08:24;8.93;;;3.75;;
32613;SDS011;19031;51.400;6.770;2023-04-06T14:10:50;8.13;;;3.20;;
32613;SDS011;19031;51.400;6.770;2023-04-06T14:13:16;7.93;;;3.72;;
32613;SDS011;19031;51.400;6.770;2023-04-06T14:15:42;7.53;;;3.55;;
32613;SDS011;19031;51.400;6.770;2023-04-06T14:18:08;6.20;;;3.53;;
32613;SDS011;19031;51.400;6.770;2023-04-06T14:20:34;6.85;;;3.38;;
32613;SDS011;19031;51.400;6.770;2023-04-06T14:23:02;13.13;;;4.10;;
32613;SDS011;19031;51.400;6.770;2023-04-06T14:25:28;7.70;;;3.50;;
32613;SDS011;19031;51.400;6.770;2023-04-06T14:27:56;9.68;;;4.25;;
32613;SDS011;19031;51.400;6.770;2023-04-06T14:30:22;5.68;;;3.58;;
32613;SDS011;19031;51.400;6.770;2023-04-06T14:32:47;6.40;;;2.88;;
32613;SDS011;19031;51.400;6.770;2023-04-06T14:35:13;8.13;;;3.45;;
32613;SDS011;19031;51.400;6.770;2023-04-06T14:37:39;8.90;;;3.30;;
32613;SDS011;19031;51.400;6.770;2023-04-06T14:40:05;8.88;;;3.33;;
32613;SDS011;19031;51.400;6.770;2023-04-06T14:42:31;7.25;;;3.40;;
32613;SDS011;19031;51.400;6.770;2023-04-06T14:44:57;6.72;;;3.83;;
32613;SDS011;19031;51.400;6.770;2023-04-06T14:47:22;9.98;;;3.45;;
32613;SDS011;19031;51.400;6.770;2023-04-06T14:49:50;6.47;;;3.60;;
32613;SDS011;19031;51.400;6.770;2023-04-06T14:52:23;7.13;;;3.38;;
32613;SDS011;19031;51.400;6.770;2023-04-06T14:54:50;6.13;;;3.45;;